sensor_id;sensor_type;location;lat;lon;timestamp;pressure;altitude;pressure_sealevel;temperature;humidity
51287;BME280;37364;46.974;18.916;2022-11-30T00:00:06;150862.09;;;2.03;100.00
51287;BME280;37364;46.974;18.916;2022-11-30T00:02:39;150855.69;;;2.00;100.00
51287;BME280;37364;46.974;18.916;2022-11-30T00:05:10;150841.53;;;1.94;100.00
51287;BME280;37364;46.974;18.916;2022-11-30T00:07:43;150842.81;;;1.95;100.00
51287;BME280;37364;46.974;18.916;2022-11-30T00:10:13;150846.69;;;1.96;100.00
51287;BME280;37364;46.974;18.916;2022-11-30T00:12:44;150836.41;;;1.92;100.00
51287;BME280;37364;46.974;18.916;2022-11-30T00:15:15;150847.94;;;1.97;100.00
51287;BME280;37364;46.974;18.916;2022-11-30T00:17:47;150849.22;;;1.97;100.00
51287;BME280;37364;46.974;18.916;2022-11-30T00:20:18;150841.53;;;1.94;100.00
51287;BME280;37364;46.974;18.916;2022-11-30T00:22:54;150831.25;;;1.90;100.00
51287;BME280;37364;46.974;18.916;2022-11-30T00:25:30;150831.25;;;1.90;100.00
51287;BME280;37364;46.974;18.916;2022-11-30T00:28:02;150838.94;;;1.93;100.00
51287;BME280;37364;46.974;18.916;2022-11-30T00:30:33;150829.94;;;1.90;100.00
51287;BME280;37364;46.974;18.916;2022-11-30T00:33:03;150828.66;;;1.89;100.00
51287;BME280;37364;46.974;18.916;2022-11-30T00:35:34;150818.38;;;1.85;100.00
51287;BME280;37364;46.974;18.916;2022-11-30T00:38:07;150817.09;;;1.85;100.00
51287;BME280;37364;46.974;18.916;2022-11-30T00:40:37;150818.38;;;1.85;100.00
51287;BME280;37364;46.974;18.916;2022-11-30T00:43:08;150815.78;;;1.84;100.00
51287;BME280;37364;46.974;18.916;2022-11-30T00:45:42;150810.63;;;1.82;100.00
51287;BME280;37364;46.974;18.916;2022-11-30T00:48:13;150855.69;;;2.00;100.00
51287;BME280;37364;46.974;18.916;2022-11-30T00:50:43;150811.94;;;1.83;100.00
51287;BME280;37364;46.974;18.916;2022-11-30T00:53:16;150805.50;;;1.80;100.00
51287;BME280;37364;46.974;18.916;2022-11-30T00:55:47;150802.94;;;1.79;100.00
51287;BME280;37364;46.974;18.916;2022-11-30T00:58:17;150796.53;;;1.76;100.00
51287;BME280;37364;46.974;18.916;2022-11-30T01:00:49;150787.50;;;1.73;100.00
51287;BME280;37364;46.974;18.916;2022-11-30T01:03:20;150792.66;;;1.75;100.00
51287;BME280;37364;46.974;18.916;2022-11-30T01:05:50;150774.63;;;1.68;100.00
51287;BME280;37364;46.974;18.916;2022-11-30T01:08:23;150787.50;;;1.73;100.00
51287;BME280;37364;46.974;18.916;2022-11-30T01:10:53;150806.81;;;1.81;100.00
51287;BME280;37364;46.974;18.916;2022-11-30T01:13:24;150797.81;;;1.77;100.00
51287;BME280;37364;46.974;18.916;2022-11-30T01:15:54;150792.66;;;1.75;100.00
51287;BME280;37364;46.974;18.916;2022-11-30T01:18:25;150806.81;;;1.81;100.00
51287;BME280;37364;46.974;18.916;2022-11-30T01:20:55;150784.91;;;1.72;100.00
51287;BME280;37364;46.974;18.916;2022-11-30T01:23:28;150797.81;;;1.77;100.00
51287;BME280;37364;46.974;18.916;2022-11-30T01:25:58;150804.22;;;1.80;100.00
51287;BME280;37364;46.974;18.916;2022-11-30T01:28:28;150804.22;;;1.80;100.00
51287;BME280;37364;46.974;18.916;2022-11-30T01:31:00;150806.81;;;1.81;100.00
51287;BME280;37364;46.974;18.916;2022-11-30T01:33:32;150820.97;;;1.86;100.00
51287;BME280;37364;46.974;18.916;2022-11-30T01:36:04;150835.06;;;1.92;100.00
51287;BME280;37364;46.974;18.916;2022-11-30T01:38:38;150832.53;;;1.91;100.00
51287;BME280;37364;46.974;18.916;2022-11-30T01:41:11;150836.41;;;1.92;100.00
51287;BME280;37364;46.974;18.916;2022-11-30T01:43:44;150853.09;;;1.99;100.00
51287;BME280;37364;46.974;18.916;2022-11-30T01:46:25;150864.66;;;2.04;100.00
51287;BME280;37364;46.974;18.916;2022-11-30T01:49:01;150859.50;;;2.02;100.00
51287;BME280;37364;46.974;18.916;2022-11-30T01:51:35;150856.97;;;2.01;100.00
51287;BME280;37364;46.974;18.916;2022-11-30T01:54:13;150876.25;;;2.08;100.00
51287;BME280;37364;46.974;18.916;2022-11-30T01:56:46;150874.94;;;2.08;100.00
51287;BME280;37364;46.974;18.916;2022-11-30T01:59:20;150865.97;;;2.04;100.00
51287;BME280;37364;46.974;18.916;2022-11-30T02:01:51;150865.97;;;2.04;100.00
51287;BME280;37364;46.974;18.916;2022-11-30T02:04:27;150876.25;;;2.08;100.00
51287;BME280;37364;46.974;18.916;2022-11-30T02:06:58;150882.69;;;2.11;100.00
51287;BME280;37364;46.974;18.916;2022-11-30T02:09:38;150883.97;;;2.11;100.00
51287;BME280;37364;46.974;18.916;2022-11-30T02:12:11;150881.41;;;2.10;100.00
51287;BME280;37364;46.974;18.916;2022-11-30T02:14:48;150890.41;;;2.14;100.00
51287;BME280;37364;46.974;18.916;2022-11-30T02:17:24;150905.84;;;2.20;100.00
51287;BME280;37364;46.974;18.916;2022-11-30T02:20:37;150923.84;;;2.27;100.00
51287;BME280;37364;46.974;18.916;2022-11-30T02:23:38;150917.41;;;2.25;100.00
51287;BME280;37364;46.974;18.916;2022-11-30T02:26:26;150913.53;;;2.23;100.00
51287;BME280;37364;46.974;18.916;2022-11-30T02:29:12;150935.44;;;2.32;100.00
51287;BME280;37364;46.974;18.916;2022-11-30T02:31:48;150917.41;;;2.25;100.00
51287;BME280;37364;46.974;18.916;2022-11-30T02:34:21;150900.72;;;2.18;100.00
51287;BME280;37364;46.974;18.916;2022-11-30T02:36:54;150904.59;;;2.20;100.00
51287;BME280;37364;46.974;18.916;2022-11-30T02:39:25;150903.25;;;2.19;100.00
51287;BME280;37364;46.974;18.916;2022-11-30T02:41:55;150895.56;;;2.16;100.00
51287;BME280;37364;46.974;18.916;2022-11-30T02:44:28;150907.13;;;2.21;100.00
51287;BME280;37364;46.974;18.916;2022-11-30T02:47:08;150908.41;;;2.21;100.00
51287;BME280;37364;46.974;18.916;2022-11-30T02:49:47;150903.25;;;2.19;100.00
51287;BME280;37364;46.974;18.916;2022-11-30T02:52:21;150912.28;;;2.23;100.00
51287;BME280;37364;46.974;18.916;2022-11-30T02:54:52;150922.56;;;2.27;100.00
51287;BME280;37364;46.974;18.916;2022-11-30T02:57:26;150916.16;;;2.24;100.00
51287;BME280;37364;46.974;18.916;2022-11-30T02:59:59;150926.44;;;2.28;100.00
51287;BME280;37364;46.974;18.916;2022-11-30T03:02:30;150920.00;;;2.26;100.00
51287;BME280;37364;46.974;18.916;2022-11-30T03:05:01;150920.00;;;2.26;100.00
51287;BME280;37364;46.974;18.916;2022-11-30T03:07:31;150925.16;;;2.28;100.00
51287;BME280;37364;46.974;18.916;2022-11-30T03:10:02;150917.41;;;2.25;100.00
51287;BME280;37364;46.974;18.916;2022-11-30T03:12:32;150930.31;;;2.30;100.00
51287;BME280;37364;46.974;18.916;2022-11-30T03:15:06;150934.16;;;2.31;100.00
51287;BME280;37364;46.974;18.916;2022-11-30T03:17:36;150923.84;;;2.27;100.00
51287;BME280;37364;46.974;18.916;2022-11-30T03:20:07;150930.31;;;2.30;100.00
51287;BME280;37364;46.974;18.916;2022-11-30T03:22:38;150928.97;;;2.29;100.00
51287;BME280;37364;46.974;18.916;2022-11-30T03:25:08;150940.59;;;2.34;100.00
51287;BME280;37364;46.974;18.916;2022-11-30T03:27:39;150921.28;;;2.26;100.00
51287;BME280;37364;46.974;18.916;2022-11-30T03:30:12;150916.16;;;2.24;100.00
51287;BME280;37364;46.974;18.916;2022-11-30T03:32:43;150922.56;;;2.27;100.00
51287;BME280;37364;46.974;18.916;2022-11-30T03:35:13;150925.16;;;2.28;100.00
51287;BME280;37364;46.974;18.916;2022-11-30T03:37:44;150922.56;;;2.27;100.00
51287;BME280;37364;46.974;18.916;2022-11-30T03:40:14;150914.88;;;2.24;100.00
51287;BME280;37364;46.974;18.916;2022-11-30T03:42:44;150921.28;;;2.26;100.00
51287;BME280;37364;46.974;18.916;2022-11-30T03:45:18;150907.13;;;2.21;100.00
51287;BME280;37364;46.974;18.916;2022-11-30T03:47:52;150903.25;;;2.19;100.00
51287;BME280;37364;46.974;18.916;2022-11-30T03:50:22;150928.97;;;2.29;100.00
51287;BME280;37364;46.974;18.916;2022-11-30T03:52:52;150908.41;;;2.21;100.00
51287;BME280;37364;46.974;18.916;2022-11-30T03:55:22;150914.88;;;2.24;100.00
51287;BME280;37364;46.974;18.916;2022-11-30T03:57:53;150918.69;;;2.25;100.00
51287;BME280;37364;46.974;18.916;2022-11-30T04:00:26;150920.00;;;2.26;100.00
51287;BME280;37364;46.974;18.916;2022-11-30T04:03:01;150905.84;;;2.20;100.00
51287;BME280;37364;46.974;18.916;2022-11-30T04:05:31;150907.13;;;2.21;100.00
51287;BME280;37364;46.974;18.916;2022-11-30T04:08:01;150913.53;;;2.23;100.00
51287;BME280;37364;46.974;18.916;2022-11-30T04:10:31;150920.00;;;2.26;100.00
51287;BME280;37364;46.974;18.916;2022-11-30T04:13:01;150913.53;;;2.23;100.00
51287;BME280;37364;46.974;18.916;2022-11-30T04:15:34;150927.69;;;2.29;100.00
51287;BME280;37364;46.974;18.916;2022-11-30T04:18:04;150922.56;;;2.27;100.00
51287;BME280;37364;46.974;18.916;2022-11-30T04:20:34;150903.25;;;2.19;100.00
51287;BME280;37364;46.974;18.916;2022-11-30T04:23:08;150907.13;;;2.21;100.00
51287;BME280;37364;46.974;18.916;2022-11-30T04:25:38;150916.16;;;2.24;100.00
51287;BME280;37364;46.974;18.916;2022-11-30T04:28:09;150917.41;;;2.25;100.00
51287;BME280;37364;46.974;18.916;2022-11-30T04:30:43;150930.31;;;2.30;100.00
51287;BME280;37364;46.974;18.916;2022-11-30T04:33:16;150928.97;;;2.29;100.00
51287;BME280;37364;46.974;18.916;2022-11-30T04:35:47;150925.16;;;2.28;100.00
51287;BME280;37364;46.974;18.916;2022-11-30T04:38:19;150934.16;;;2.31;100.00
51287;BME280;37364;46.974;18.916;2022-11-30T04:40:49;150925.16;;;2.28;100.00
51287;BME280;37364;46.974;18.916;2022-11-30T04:43:20;150948.28;;;2.37;100.00
51287;BME280;37364;46.974;18.916;2022-11-30T04:45:54;150935.44;;;2.32;100.00
51287;BME280;37364;46.974;18.916;2022-11-30T04:48:24;150945.72;;;2.36;100.00
51287;BME280;37364;46.974;18.916;2022-11-30T04:50:59;150934.16;;;2.31;100.00
51287;BME280;37364;46.974;18.916;2022-11-30T04:53:31;150940.59;;;2.34;100.00
51287;BME280;37364;46.974;18.916;2022-11-30T04:56:04;150934.16;;;2.31;100.00
51287;BME280;37364;46.974;18.916;2022-11-30T04:58:36;150953.44;;;2.39;100.00
51287;BME280;37364;46.974;18.916;2022-11-30T05:01:10;150934.16;;;2.31;100.00
51287;BME280;37364;46.974;18.916;2022-11-30T05:03:41;150962.44;;;2.43;100.00
51287;BME280;37364;46.974;18.916;2022-11-30T05:06:11;150941.88;;;2.34;100.00
51287;BME280;37364;46.974;18.916;2022-11-30T05:08:41;150948.28;;;2.37;100.00
51287;BME280;37364;46.974;18.916;2022-11-30T05:11:11;150959.91;;;2.42;100.00
51287;BME280;37364;46.974;18.916;2022-11-30T05:13:42;150950.88;;;2.38;100.00
51287;BME280;37364;46.974;18.916;2022-11-30T05:16:15;150952.16;;;2.38;100.00
51287;BME280;37364;46.974;18.916;2022-11-30T05:18:45;150939.31;;;2.33;100.00
51287;BME280;37364;46.974;18.916;2022-11-30T05:21:15;150954.75;;;2.40;100.00
51287;BME280;37364;46.974;18.916;2022-11-30T05:23:45;150931.56;;;2.30;100.00
51287;BME280;37364;46.974;18.916;2022-11-30T05:26:16;150931.56;;;2.30;100.00
51287;BME280;37364;46.974;18.916;2022-11-30T05:28:46;150920.00;;;2.26;100.00
51287;BME280;37364;46.974;18.916;2022-11-30T05:31:18;150934.16;;;2.31;100.00
51287;BME280;37364;46.974;18.916;2022-11-30T05:33:49;150928.97;;;2.29;100.00
51287;BME280;37364;46.974;18.916;2022-11-30T05:36:20;150927.69;;;2.29;100.00
51287;BME280;37364;46.974;18.916;2022-11-30T05:38:50;150936.72;;;2.32;100.00
51287;BME280;37364;46.974;18.916;2022-11-30T05:41:21;150922.56;;;2.27;100.00
51287;BME280;37364;46.974;18.916;2022-11-30T05:43:51;150918.69;;;2.25;100.00
51287;BME280;37364;46.974;18.916;2022-11-30T05:46:24;150926.44;;;2.28;100.00
51287;BME280;37364;46.974;18.916;2022-11-30T05:48:55;150928.97;;;2.29;100.00
51287;BME280;37364;46.974;18.916;2022-11-30T05:51:25;150925.16;;;2.28;100.00
51287;BME280;37364;46.974;18.916;2022-11-30T05:53:55;150907.13;;;2.21;100.00
51287;BME280;37364;46.974;18.916;2022-11-30T05:56:27;150917.41;;;2.25;100.00
51287;BME280;37364;46.974;18.916;2022-11-30T05:58:57;150909.72;;;2.22;100.00
51287;BME280;37364;46.974;18.916;2022-11-30T06:01:30;150918.69;;;2.25;100.00
51287;BME280;37364;46.974;18.916;2022-11-30T06:04:03;150909.72;;;2.22;100.00
51287;BME280;37364;46.974;18.916;2022-11-30T06:06:35;150899.38;;;2.17;100.00
51287;BME280;37364;46.974;18.916;2022-11-30T06:09:05;150911.00;;;2.22;100.00
51287;BME280;37364;46.974;18.916;2022-11-30T06:11:35;150930.31;;;2.30;100.00
51287;BME280;37364;46.974;18.916;2022-11-30T06:14:06;150898.13;;;2.17;100.00
51287;BME280;37364;46.974;18.916;2022-11-30T06:16:39;150899.38;;;2.17;100.00
51287;BME280;37364;46.974;18.916;2022-11-30T06:19:10;150901.97;;;2.18;100.00
51287;BME280;37364;46.974;18.916;2022-11-30T06:21:40;150890.41;;;2.14;100.00
51287;BME280;37364;46.974;18.916;2022-11-30T06:24:10;150903.25;;;2.19;100.00
51287;BME280;37364;46.974;18.916;2022-11-30T06:26:41;150904.59;;;2.20;100.00
51287;BME280;37364;46.974;18.916;2022-11-30T06:29:12;150904.59;;;2.20;100.00
51287;BME280;37364;46.974;18.916;2022-11-30T06:31:45;150900.72;;;2.18;100.00
51287;BME280;37364;46.974;18.916;2022-11-30T06:34:15;150895.56;;;2.16;100.00
51287;BME280;37364;46.974;18.916;2022-11-30T06:36:46;150917.41;;;2.25;100.00
51287;BME280;37364;46.974;18.916;2022-11-30T06:39:16;150916.16;;;2.24;100.00
51287;BME280;37364;46.974;18.916;2022-11-30T06:42:06;150926.44;;;2.28;100.00
51287;BME280;37364;46.974;18.916;2022-11-30T06:44:36;150925.16;;;2.28;100.00
51287;BME280;37364;46.974;18.916;2022-11-30T06:47:09;150930.31;;;2.30;100.00
51287;BME280;37364;46.974;18.916;2022-11-30T06:49:39;150944.47;;;2.35;100.00
51287;BME280;37364;46.974;18.916;2022-11-30T06:52:09;150954.75;;;2.40;100.00
51287;BME280;37364;46.974;18.916;2022-11-30T06:54:40;150945.72;;;2.36;100.00
51287;BME280;37364;46.974;18.916;2022-11-30T06:57:10;150943.13;;;2.35;100.00
51287;BME280;37364;46.974;18.916;2022-11-30T06:59:41;150939.31;;;2.33;100.00
51287;BME280;37364;46.974;18.916;2022-11-30T07:02:15;150983.03;;;2.51;100.00
51287;BME280;37364;46.974;18.916;2022-11-30T07:04:45;150983.03;;;2.51;100.00
51287;BME280;37364;46.974;18.916;2022-11-30T07:07:15;150974.06;;;2.47;100.00
51287;BME280;37364;46.974;18.916;2022-11-30T07:09:46;150993.38;;;2.55;100.00
51287;BME280;37364;46.974;18.916;2022-11-30T07:12:16;151008.81;;;2.61;100.00
51287;BME280;37364;46.974;18.916;2022-11-30T07:14:47;151011.34;;;2.62;100.00
51287;BME280;37364;46.974;18.916;2022-11-30T07:17:21;151013.94;;;2.63;100.00
51287;BME280;37364;46.974;18.916;2022-11-30T07:19:51;151029.38;;;2.69;100.00
51287;BME280;37364;46.974;18.916;2022-11-30T07:22:21;151024.25;;;2.67;100.00
51287;BME280;37364;46.974;18.916;2022-11-30T07:24:52;151029.38;;;2.69;100.00
51287;BME280;37364;46.974;18.916;2022-11-30T07:27:34;151033.25;;;2.71;100.00
51287;BME280;37364;46.974;18.916;2022-11-30T07:30:08;151053.84;;;2.79;100.00
51287;BME280;37364;46.974;18.916;2022-11-30T07:32:41;151055.13;;;2.80;100.00
51287;BME280;37364;46.974;18.916;2022-11-30T07:35:11;151044.81;;;2.75;100.00
51287;BME280;37364;46.974;18.916;2022-11-30T07:37:41;151040.94;;;2.74;100.00
51287;BME280;37364;46.974;18.916;2022-11-30T07:40:12;151048.69;;;2.77;100.00
51287;BME280;37364;46.974;18.916;2022-11-30T07:42:43;151048.69;;;2.77;100.00
51287;BME280;37364;46.974;18.916;2022-11-30T07:45:13;151056.41;;;2.80;100.00
51287;BME280;37364;46.974;18.916;2022-11-30T07:47:46;151060.25;;;2.82;100.00
51287;BME280;37364;46.974;18.916;2022-11-30T07:50:17;151060.25;;;2.82;100.00
51287;BME280;37364;46.974;18.916;2022-11-30T07:52:47;151069.28;;;2.85;100.00
51287;BME280;37364;46.974;18.916;2022-11-30T07:55:17;151073.16;;;2.87;100.00
51287;BME280;37364;46.974;18.916;2022-11-30T07:57:49;151070.56;;;2.86;100.00
51287;BME280;37364;46.974;18.916;2022-11-30T08:00:20;151079.56;;;2.89;100.00
51287;BME280;37364;46.974;18.916;2022-11-30T08:02:53;151105.31;;;3.00;100.00
51287;BME280;37364;46.974;18.916;2022-11-30T08:05:23;151087.31;;;2.92;100.00
51287;BME280;37364;46.974;18.916;2022-11-30T08:07:53;151078.31;;;2.89;100.00
51287;BME280;37364;46.974;18.916;2022-11-30T08:10:24;151101.50;;;2.98;100.00
51287;BME280;37364;46.974;18.916;2022-11-30T08:12:54;151084.72;;;2.91;100.00
51287;BME280;37364;46.974;18.916;2022-11-30T08:15:25;151109.19;;;3.01;100.00
51287;BME280;37364;46.974;18.916;2022-11-30T08:18:06;151123.34;;;3.07;100.00
51287;BME280;37364;46.974;18.916;2022-11-30T08:20:36;151137.53;;;3.12;100.00
51287;BME280;37364;46.974;18.916;2022-11-30T08:23:12;151140.06;;;3.13;100.00
51287;BME280;37364;46.974;18.916;2022-11-30T08:25:42;151136.25;;;3.12;100.00
51287;BME280;37364;46.974;18.916;2022-11-30T08:28:13;151172.28;;;3.26;100.00
51287;BME280;37364;46.974;18.916;2022-11-30T08:30:44;151150.41;;;3.17;100.00
51287;BME280;37364;46.974;18.916;2022-11-30T08:33:20;151143.94;;;3.15;100.00
51287;BME280;37364;46.974;18.916;2022-11-30T08:35:50;151160.72;;;3.22;100.00
51287;BME280;37364;46.974;18.916;2022-11-30T08:38:21;151155.56;;;3.20;100.00
51287;BME280;37364;46.974;18.916;2022-11-30T08:40:55;151160.72;;;3.22;100.00
51287;BME280;37364;46.974;18.916;2022-11-30T08:43:26;151173.56;;;3.27;100.00
51287;BME280;37364;46.974;18.916;2022-11-30T08:45:57;151183.84;;;3.31;100.00
51287;BME280;37364;46.974;18.916;2022-11-30T08:48:30;151178.72;;;3.29;100.00
51287;BME280;37364;46.974;18.916;2022-11-30T08:51:04;151173.56;;;3.27;100.00
51287;BME280;37364;46.974;18.916;2022-11-30T08:53:34;151178.72;;;3.29;100.00
51287;BME280;37364;46.974;18.916;2022-11-30T08:56:06;151194.16;;;3.35;100.00
51287;BME280;37364;46.974;18.916;2022-11-30T08:58:37;151183.84;;;3.31;100.00
51287;BME280;37364;46.974;18.916;2022-11-30T09:01:11;151187.72;;;3.32;100.00
51287;BME280;37364;46.974;18.916;2022-11-30T09:03:45;151192.88;;;3.34;100.00
51287;BME280;37364;46.974;18.916;2022-11-30T09:06:18;151204.44;;;3.39;100.00
51287;BME280;37364;46.974;18.916;2022-11-30T09:08:50;151185.19;;;3.31;100.00
51287;BME280;37364;46.974;18.916;2022-11-30T09:11:22;151187.72;;;3.32;100.00
51287;BME280;37364;46.974;18.916;2022-11-30T09:13:56;151194.16;;;3.35;100.00
51287;BME280;37364;46.974;18.916;2022-11-30T09:16:27;151196.75;;;3.36;100.00
51287;BME280;37364;46.974;18.916;2022-11-30T09:19:00;151192.88;;;3.34;100.00
51287;BME280;37364;46.974;18.916;2022-11-30T09:21:31;151195.47;;;3.35;100.00
51287;BME280;37364;46.974;18.916;2022-11-30T09:24:02;151192.88;;;3.34;100.00
51287;BME280;37364;46.974;18.916;2022-11-30T09:26:32;151200.63;;;3.38;100.00
51287;BME280;37364;46.974;18.916;2022-11-30T09:29:03;151209.66;;;3.41;100.00
51287;BME280;37364;46.974;18.916;2022-11-30T09:31:33;151225.09;;;3.47;100.00
51287;BME280;37364;46.974;18.916;2022-11-30T09:34:08;151227.66;;;3.48;100.00
51287;BME280;37364;46.974;18.916;2022-11-30T09:36:40;151213.47;;;3.43;100.00
51287;BME280;37364;46.974;18.916;2022-11-30T09:39:11;151227.66;;;3.48;100.00
51287;BME280;37364;46.974;18.916;2022-11-30T09:41:54;151230.25;;;3.49;100.00
51287;BME280;37364;46.974;18.916;2022-11-30T09:44:36;151234.13;;;3.51;100.00
51287;BME280;37364;46.974;18.916;2022-11-30T09:47:28;151240.53;;;3.53;100.00
51287;BME280;37364;46.974;18.916;2022-11-30T09:50:10;151239.28;;;3.53;100.00
51287;BME280;37364;46.974;18.916;2022-11-30T09:52:44;151241.81;;;3.54;100.00
51287;BME280;37364;46.974;18.916;2022-11-30T09:55:25;151259.88;;;3.61;100.00
51287;BME280;37364;46.974;18.916;2022-11-30T09:57:59;151270.16;;;3.65;100.00
51287;BME280;37364;46.974;18.916;2022-11-30T10:00:32;151285.63;;;3.71;100.00
51287;BME280;37364;46.974;18.916;2022-11-30T10:03:04;151280.47;;;3.69;100.00
51287;BME280;37364;46.974;18.916;2022-11-30T10:05:45;151316.53;;;3.84;100.00
51287;BME280;37364;46.974;18.916;2022-11-30T10:08:26;151344.88;;;3.95;100.00
51287;BME280;37364;46.974;18.916;2022-11-30T10:11:13;151360.31;;;4.01;100.00
51287;BME280;37364;46.974;18.916;2022-11-30T10:13:59;151401.59;;;4.18;100.00
51287;BME280;37364;46.974;18.916;2022-11-30T10:16:36;151428.63;;;4.28;100.00
51287;BME280;37364;46.974;18.916;2022-11-30T10:19:18;151460.88;;;4.41;100.00
51287;BME280;37364;46.974;18.916;2022-11-30T10:22:05;151447.97;;;4.36;100.00
51287;BME280;37364;46.974;18.916;2022-11-30T10:24:53;151451.84;;;4.38;100.00
51287;BME280;37364;46.974;18.916;2022-11-30T10:27:37;151499.50;;;4.56;100.00
51287;BME280;37364;46.974;18.916;2022-11-30T10:30:16;151503.38;;;4.58;100.00
51287;BME280;37364;46.974;18.916;2022-11-30T10:32:51;151496.94;;;4.55;100.00
51287;BME280;37364;46.974;18.916;2022-11-30T10:35:39;151503.38;;;4.58;100.00
51287;BME280;37364;46.974;18.916;2022-11-30T10:38:18;151531.75;;;4.69;100.00
51287;BME280;37364;46.974;18.916;2022-11-30T10:40:52;151526.59;;;4.67;100.00
51287;BME280;37364;46.974;18.916;2022-11-30T10:43:26;151513.69;;;4.62;100.00
51287;BME280;37364;46.974;18.916;2022-11-30T10:45:59;151516.28;;;4.63;100.00
51287;BME280;37364;46.974;18.916;2022-11-30T10:48:35;151471.19;;;4.45;100.00
51287;BME280;37364;46.974;18.916;2022-11-30T10:51:07;151491.78;;;4.53;100.00
51287;BME280;37364;46.974;18.916;2022-11-30T10:53:41;151472.44;;;4.46;100.00
51287;BME280;37364;46.974;18.916;2022-11-30T10:56:12;151475.00;;;4.47;100.00
51287;BME280;37364;46.974;18.916;2022-11-30T10:58:51;151464.69;;;4.43;100.00
51287;BME280;37364;46.974;18.916;2022-11-30T11:01:31;151491.78;;;4.53;100.00
51287;BME280;37364;46.974;18.916;2022-11-30T11:04:13;151496.94;;;4.55;100.00
51287;BME280;37364;46.974;18.916;2022-11-30T11:06:46;151525.31;;;4.67;100.00
51287;BME280;37364;46.974;18.916;2022-11-30T11:09:26;151534.28;;;4.70;100.00
51287;BME280;37364;46.974;18.916;2022-11-30T11:12:00;151500.81;;;4.57;100.00
51287;BME280;37364;46.974;18.916;2022-11-30T11:14:32;151503.38;;;4.58;100.00
51287;BME280;37364;46.974;18.916;2022-11-30T11:17:05;151513.69;;;4.62;100.00
51287;BME280;37364;46.974;18.916;2022-11-30T11:19:39;151503.38;;;4.58;100.00
51287;BME280;37364;46.974;18.916;2022-11-30T11:22:16;151511.13;;;4.61;100.00
51287;BME280;37364;46.974;18.916;2022-11-30T11:24:50;151518.84;;;4.64;100.00
51287;BME280;37364;46.974;18.916;2022-11-30T11:27:25;151513.69;;;4.62;100.00
51287;BME280;37364;46.974;18.916;2022-11-30T11:30:01;151499.50;;;4.56;100.00
51287;BME280;37364;46.974;18.916;2022-11-30T11:32:31;151504.66;;;4.59;100.00
51287;BME280;37364;46.974;18.916;2022-11-30T11:35:02;151503.38;;;4.58;100.00
51287;BME280;37364;46.974;18.916;2022-11-30T11:37:33;151472.44;;;4.46;100.00
51287;BME280;37364;46.974;18.916;2022-11-30T11:40:16;151498.22;;;4.56;100.00
51287;BME280;37364;46.974;18.916;2022-11-30T11:42:50;151502.09;;;4.58;100.00
51287;BME280;37364;46.974;18.916;2022-11-30T11:45:23;151485.34;;;4.51;100.00
51287;BME280;37364;46.974;18.916;2022-11-30T11:47:58;151503.38;;;4.58;100.00
51287;BME280;37364;46.974;18.916;2022-11-30T11:50:32;151495.66;;;4.55;100.00
51287;BME280;37364;46.974;18.916;2022-11-30T11:53:38;151526.59;;;4.67;100.00
51287;BME280;37364;46.974;18.916;2022-11-30T11:56:25;151482.75;;;4.50;100.00
51287;BME280;37364;46.974;18.916;2022-11-30T11:59:00;151517.56;;;4.64;100.00
51287;BME280;37364;46.974;18.916;2022-11-30T12:01:49;151515.00;;;4.63;100.00
51287;BME280;37364;46.974;18.916;2022-11-30T12:04:41;151535.63;;;4.71;100.00
51287;BME280;37364;46.974;18.916;2022-11-30T12:07:24;151520.16;;;4.65;100.00
51287;BME280;37364;46.974;18.916;2022-11-30T12:10:02;151531.75;;;4.69;100.00
51287;BME280;37364;46.974;18.916;2022-11-30T12:13:10;151542.06;;;4.73;100.00
51287;BME280;37364;46.974;18.916;2022-11-30T12:15:52;151540.78;;;4.73;100.00
51287;BME280;37364;46.974;18.916;2022-11-30T12:18:32;151529.13;;;4.68;100.00
51287;BME280;37364;46.974;18.916;2022-11-30T12:21:12;151533.03;;;4.70;100.00
51287;BME280;37364;46.974;18.916;2022-11-30T12:23:56;151535.63;;;4.71;100.00
51287;BME280;37364;46.974;18.916;2022-11-30T12:26:36;151495.66;;;4.55;100.00
51287;BME280;37364;46.974;18.916;2022-11-30T12:29:19;151518.84;;;4.64;100.00
51287;BME280;37364;46.974;18.916;2022-11-30T12:32:04;151496.94;;;4.55;100.00
51287;BME280;37364;46.974;18.916;2022-11-30T12:34:59;151484.03;;;4.50;100.00
51287;BME280;37364;46.974;18.916;2022-11-30T12:37:43;151469.84;;;4.45;100.00
51287;BME280;37364;46.974;18.916;2022-11-30T12:40:28;151472.44;;;4.46;100.00
51287;BME280;37364;46.974;18.916;2022-11-30T12:43:11;151426.06;;;4.27;100.00
51287;BME280;37364;46.974;18.916;2022-11-30T12:45:51;151427.34;;;4.28;100.00
51287;BME280;37364;46.974;18.916;2022-11-30T12:48:33;151419.59;;;4.25;100.00
51287;BME280;37364;46.974;18.916;2022-11-30T12:51:16;151424.75;;;4.27;100.00
51287;BME280;37364;46.974;18.916;2022-11-30T12:54:03;151428.63;;;4.28;100.00
51287;BME280;37364;46.974;18.916;2022-11-30T12:56:38;151428.63;;;4.28;100.00
51287;BME280;37364;46.974;18.916;2022-11-30T12:59:21;151418.31;;;4.24;100.00
51287;BME280;37364;46.974;18.916;2022-11-30T13:02:15;151427.34;;;4.28;100.00
51287;BME280;37364;46.974;18.916;2022-11-30T13:04:50;151458.28;;;4.40;100.00
51287;BME280;37364;46.974;18.916;2022-11-30T13:07:28;151438.94;;;4.32;100.00
51287;BME280;37364;46.974;18.916;2022-11-30T13:09:59;151451.84;;;4.38;100.00
51287;BME280;37364;46.974;18.916;2022-11-30T13:12:34;151440.22;;;4.33;100.00
51287;BME280;37364;46.974;18.916;2022-11-30T13:15:14;151426.06;;;4.27;100.00